createdAt,value
2018-03-22T00:00:55.631Z,18.10
2018-03-22T00:03:23.982Z,17.67
2018-03-22T00:05:52.392Z,18.23
2018-03-22T00:08:20.737Z,17.83
2018-03-22T00:10:49.179Z,17.80
2018-03-22T00:13:17.528Z,17.97
2018-03-22T00:15:45.856Z,17.37
2018-03-22T00:18:14.198Z,17.67
2018-03-22T00:20:42.536Z,18.13
2018-03-22T00:23:10.877Z,17.90
2018-03-22T00:25:39.224Z,17.70
2018-03-22T00:28:07.580Z,17.33
2018-03-22T00:30:35.936Z,17.40
2018-03-22T00:35:56.078Z,16.83
2018-03-22T00:38:24.409Z,19.43
2018-03-22T00:40:52.564Z,17.83
2018-03-22T00:43:20.919Z,17.63
2018-03-22T00:45:49.251Z,18.67
2018-03-22T00:48:17.608Z,19.17
2018-03-22T00:50:45.946Z,17.23
2018-03-22T00:53:14.271Z,19.80
2018-03-22T00:55:42.612Z,17.97
2018-03-22T00:58:10.956Z,18.60
2018-03-22T01:00:39.297Z,19.07
2018-03-22T01:03:07.636Z,17.77
2018-03-22T01:05:36.012Z,16.57
2018-03-22T01:08:04.335Z,16.40
2018-03-22T01:10:32.681Z,16.47
2018-03-22T01:13:01.014Z,16.37
2018-03-22T01:15:29.334Z,15.67
2018-03-22T01:17:57.672Z,17.63
2018-03-22T01:20:26.024Z,15.70
2018-03-22T01:22:54.357Z,16.63
2018-03-22T01:25:22.687Z,15.53
2018-03-22T01:27:51.016Z,17.20
2018-03-22T01:30:30.577Z,17.50
2018-03-22T01:32:58.909Z,16.10
2018-03-22T01:35:27.255Z,16.07
2018-03-22T01:37:55.585Z,16.93
2018-03-22T01:40:23.757Z,15.30
2018-03-22T01:42:52.086Z,17.37
2018-03-22T01:45:20.427Z,16.43
2018-03-22T01:47:48.841Z,15.60
2018-03-22T01:50:17.163Z,16.20
2018-03-22T01:52:56.743Z,15.60
2018-03-22T01:55:25.062Z,14.67
2018-03-22T01:57:53.257Z,15.33
2018-03-22T02:00:21.599Z,14.17
2018-03-22T02:02:49.927Z,15.43
2018-03-22T02:05:18.303Z,14.57
2018-03-22T02:07:46.644Z,15.40
2018-03-22T02:10:15.005Z,14.77
2018-03-22T02:12:43.349Z,13.00
2018-03-22T02:15:11.503Z,12.87
2018-03-22T02:17:39.856Z,13.13
2018-03-22T02:20:08.187Z,14.00
2018-03-22T02:22:36.527Z,13.27
2018-03-22T02:25:04.658Z,12.90
2018-03-22T02:27:32.998Z,13.30
2018-03-22T02:30:01.503Z,13.97
2018-03-22T02:32:29.845Z,12.80
2018-03-22T02:34:58.181Z,12.63
2018-03-22T02:37:26.538Z,12.40
2018-03-22T02:39:54.876Z,12.13
2018-03-22T02:42:23.221Z,12.23
2018-03-22T02:44:51.539Z,12.10
2018-03-22T02:47:19.875Z,12.03
2018-03-22T02:49:48.202Z,11.90
2018-03-22T02:52:16.547Z,12.30
2018-03-22T02:54:44.902Z,12.80
2018-03-22T02:57:13.231Z,12.90
2018-03-22T02:59:41.577Z,13.30
2018-03-22T03:02:09.914Z,13.27
2018-03-22T03:04:38.241Z,13.03
2018-03-22T03:07:06.597Z,12.80
2018-03-22T03:09:34.924Z,11.83
2018-03-22T03:12:03.274Z,13.60
2018-03-22T03:14:31.636Z,12.07
2018-03-22T03:16:59.986Z,12.30
2018-03-22T03:19:28.319Z,12.60
2018-03-22T03:21:56.672Z,12.27
2018-03-22T03:24:25.018Z,12.13
2018-03-22T03:26:53.335Z,12.53
2018-03-22T03:29:21.680Z,12.17
2018-03-22T03:31:50.016Z,11.67
2018-03-22T03:34:18.359Z,12.77
2018-03-22T03:36:46.838Z,12.43
2018-03-22T03:39:15.159Z,12.23
2018-03-22T03:41:43.512Z,13.17
2018-03-22T03:44:11.846Z,13.40
2018-03-22T03:46:40.192Z,12.40
2018-03-22T03:49:08.568Z,13.23
2018-03-22T03:51:36.898Z,12.77
2018-03-22T03:54:05.251Z,13.30
2018-03-22T03:56:33.578Z,13.07
2018-03-22T03:59:01.987Z,12.37
2018-03-22T04:01:30.358Z,11.93
2018-03-22T04:03:58.498Z,12.77
2018-03-22T04:06:26.854Z,11.80
2018-03-22T04:08:55.198Z,11.77
2018-03-22T04:11:23.555Z,12.67
2018-03-22T04:13:52.199Z,12.70
2018-03-22T04:16:20.543Z,13.17
2018-03-22T04:18:48.875Z,12.63
2018-03-22T04:21:17.216Z,11.80
2018-03-22T04:23:45.590Z,13.00
2018-03-22T04:26:13.953Z,12.13
2018-03-22T04:31:25.107Z,13.37
2018-03-22T04:33:53.457Z,12.80
2018-03-22T04:36:21.801Z,10.80
2018-03-22T04:38:50.154Z,12.73
2018-03-22T04:41:18.511Z,11.73
2018-03-22T04:43:46.873Z,13.47
2018-03-22T04:46:15.269Z,12.17
2018-03-22T04:48:43.601Z,13.73
2018-03-22T04:51:11.947Z,13.40
2018-03-22T04:53:40.074Z,15.17
2018-03-22T04:56:08.426Z,14.43
2018-03-22T04:58:36.811Z,14.33
2018-03-22T05:01:05.291Z,13.07
2018-03-22T05:03:33.816Z,14.40
2018-03-22T05:06:02.184Z,14.33
2018-03-22T05:08:30.511Z,14.03
2018-03-22T05:10:58.897Z,14.73
2018-03-22T05:13:27.067Z,14.03
2018-03-22T05:15:55.404Z,15.37
2018-03-22T05:18:23.729Z,17.43
2018-03-22T05:20:52.062Z,20.47
2018-03-22T05:23:20.409Z,18.17
2018-03-22T05:25:48.746Z,17.03
2018-03-22T05:28:17.093Z,17.17
2018-03-22T05:30:45.420Z,16.83
2018-03-22T05:33:13.811Z,17.53
2018-03-22T05:35:42.161Z,18.40
2018-03-22T05:38:10.298Z,15.60
2018-03-22T05:40:38.452Z,16.57
2018-03-22T05:43:06.825Z,16.30
2018-03-22T05:45:35.169Z,18.90
2018-03-22T05:48:03.946Z,18.77
2018-03-22T05:50:32.669Z,18.50
2018-03-22T05:53:00.996Z,18.77
2018-03-22T05:55:30.152Z,19.67
2018-03-22T05:58:00.136Z,18.40
2018-03-22T06:00:28.481Z,21.83
2018-03-22T06:02:56.623Z,18.37
2018-03-22T06:05:24.949Z,19.87
2018-03-22T06:07:53.308Z,17.10
2018-03-22T06:10:21.662Z,18.37
2018-03-22T06:12:50.006Z,19.17
2018-03-22T06:15:18.367Z,18.27
2018-03-22T06:17:46.738Z,18.80
2018-03-22T06:20:15.090Z,17.70
2018-03-22T06:22:43.418Z,19.23
2018-03-22T06:25:11.759Z,20.27
2018-03-22T06:27:40.108Z,19.60
2018-03-22T06:30:08.457Z,18.53
2018-03-22T06:32:36.806Z,18.77
2018-03-22T06:35:04.983Z,20.13
2018-03-22T06:37:33.318Z,19.00
2018-03-22T06:40:01.678Z,19.13
2018-03-22T06:42:41.203Z,19.97
2018-03-22T06:45:09.542Z,18.53
2018-03-22T06:47:37.679Z,15.83
2018-03-22T06:50:06.021Z,12.60
2018-03-22T06:52:34.336Z,11.93
2018-03-22T06:55:02.671Z,13.20
2018-03-22T06:57:31.031Z,13.27
2018-03-22T06:59:59.410Z,11.80
2018-03-22T07:02:27.723Z,10.33
2018-03-22T07:04:56.078Z,12.07
2018-03-22T07:07:24.440Z,12.33
2018-03-22T07:09:52.786Z,13.13
2018-03-22T07:12:21.115Z,12.57
2018-03-22T07:14:49.494Z,13.83
2018-03-22T07:17:17.848Z,15.50
2018-03-22T07:19:46.228Z,15.23
2018-03-22T07:22:14.751Z,15.70
2018-03-22T07:24:43.090Z,16.07
2018-03-22T07:27:11.476Z,17.00
2018-03-22T07:29:39.812Z,16.07
2018-03-22T07:32:08.150Z,16.27
2018-03-22T07:34:36.475Z,16.73
2018-03-22T07:37:04.812Z,12.53
2018-03-22T07:39:33.152Z,12.63
2018-03-22T07:42:01.504Z,13.77
2018-03-22T07:44:35.220Z,13.77
2018-03-22T07:47:03.570Z,12.57
2018-03-22T07:49:31.905Z,13.70
2018-03-22T07:52:00.237Z,14.27
2018-03-22T07:54:29.042Z,14.43
2018-03-22T07:56:58.536Z,14.30
2018-03-22T07:59:26.945Z,13.70
2018-03-22T08:01:55.269Z,13.00
2018-03-22T08:04:24.467Z,14.77
2018-03-22T08:06:52.791Z,14.17
2018-03-22T08:09:21.119Z,15.20
2018-03-22T08:11:49.435Z,13.63
2018-03-22T08:14:17.765Z,12.83
2018-03-22T08:16:46.083Z,15.07
2018-03-22T08:19:14.419Z,14.40
2018-03-22T08:21:42.749Z,15.30
2018-03-22T08:24:11.089Z,16.53
2018-03-22T08:26:39.443Z,16.53
2018-03-22T08:29:07.808Z,16.20
2018-03-22T08:31:36.190Z,16.53
2018-03-22T08:34:04.670Z,12.63
2018-03-22T08:36:33.031Z,15.63
2018-03-22T08:39:01.368Z,14.50
2018-03-22T08:41:29.993Z,14.00
2018-03-22T08:43:58.311Z,14.80
2018-03-22T08:46:26.674Z,12.87
2018-03-22T08:48:55.048Z,13.63
2018-03-22T08:51:23.395Z,14.57
2018-03-22T08:53:51.736Z,14.43
2018-03-22T08:56:20.187Z,14.77
2018-03-22T08:58:48.510Z,14.20
2018-03-22T09:01:16.855Z,14.60
2018-03-22T09:03:45.205Z,12.73
2018-03-22T09:06:13.632Z,11.47
2018-03-22T09:08:41.970Z,10.40
2018-03-22T09:11:10.322Z,11.23
2018-03-22T09:13:38.653Z,12.20
2018-03-22T09:16:07.004Z,12.67
2018-03-22T09:18:35.331Z,11.97
2018-03-22T09:21:03.687Z,11.93
2018-03-22T09:23:32.050Z,13.40
2018-03-22T09:26:00.387Z,12.77
2018-03-22T09:28:28.862Z,14.03
2018-03-22T09:30:57.212Z,12.40
2018-03-22T09:33:25.892Z,12.50
2018-03-22T09:35:54.327Z,12.00
2018-03-22T09:38:22.707Z,12.13
2018-03-22T09:40:51.140Z,13.77
2018-03-22T09:43:19.663Z,12.33
2018-03-22T09:45:48.202Z,11.90
2018-03-22T09:48:16.599Z,13.37
2018-03-22T09:50:44.978Z,12.87
2018-03-22T09:53:13.351Z,12.80
2018-03-22T09:55:41.810Z,13.43
2018-03-22T09:58:10.227Z,12.77
2018-03-22T10:00:38.653Z,13.97
2018-03-22T10:03:07.047Z,14.00
2018-03-22T10:05:35.434Z,14.33
2018-03-22T10:08:03.824Z,14.63
2018-03-22T10:10:32.163Z,13.47
2018-03-22T10:13:00.525Z,14.90
2018-03-22T10:15:28.847Z,15.67
2018-03-22T10:17:57.203Z,10.93
2018-03-22T10:20:24.601Z,13.67
2018-03-22T10:22:52.927Z,13.87
2018-03-22T10:25:21.289Z,12.70
2018-03-22T10:27:49.619Z,12.90
2018-03-22T10:30:18.016Z,13.60
2018-03-22T10:32:46.384Z,13.33
2018-03-22T10:35:14.778Z,12.67
2018-03-22T10:37:43.141Z,12.77
2018-03-22T10:40:11.467Z,13.43
2018-03-22T10:42:39.805Z,12.40
2018-03-22T10:45:08.122Z,11.33
2018-03-22T10:47:36.461Z,11.30
2018-03-22T10:50:04.795Z,9.80
2018-03-22T10:52:33.131Z,8.60
2018-03-22T10:55:01.716Z,9.33
2018-03-22T10:57:30.350Z,9.13
2018-03-22T10:59:58.682Z,7.30
2018-03-22T11:02:32.443Z,7.83
2018-03-22T11:05:00.800Z,6.90
2018-03-22T11:07:29.143Z,7.63
2018-03-22T11:09:57.347Z,8.60
2018-03-22T11:12:25.684Z,7.90
2018-03-22T11:14:54.052Z,7.07
2018-03-22T11:17:22.391Z,7.60
2018-03-22T11:19:50.714Z,7.20
2018-03-22T11:22:19.255Z,7.67
2018-03-22T11:24:47.614Z,7.63
2018-03-22T11:27:15.965Z,7.57
2018-03-22T11:29:44.317Z,8.27
2018-03-22T11:32:12.654Z,7.23
2018-03-22T11:34:40.982Z,8.93
2018-03-22T11:37:09.335Z,8.87
2018-03-22T11:39:37.654Z,8.17
2018-03-22T11:42:05.995Z,7.67
2018-03-22T11:44:34.334Z,8.17
2018-03-22T11:47:02.668Z,7.50
2018-03-22T11:49:31.025Z,7.53
2018-03-22T11:51:59.350Z,8.03
2018-03-22T11:54:27.675Z,7.77
2018-03-22T11:56:55.999Z,7.17
2018-03-22T11:59:24.444Z,7.70
2018-03-22T12:01:52.839Z,6.83
2018-03-22T12:04:21.363Z,6.93
2018-03-22T12:06:49.876Z,7.67
2018-03-22T12:09:18.247Z,7.23
2018-03-22T12:11:46.613Z,6.90
2018-03-22T12:14:14.988Z,6.17
2018-03-22T12:16:43.344Z,6.43
2018-03-22T12:19:11.702Z,6.37
2018-03-22T12:21:40.131Z,5.97
2018-03-22T12:26:42.491Z,6.90
2018-03-22T12:29:10.919Z,7.03
2018-03-22T12:31:39.283Z,6.87
2018-03-22T12:34:07.653Z,5.83
2018-03-22T12:36:36.054Z,5.20
2018-03-22T12:39:04.002Z,4.93
2018-03-22T12:41:32.331Z,4.60
2018-03-22T12:44:00.662Z,4.40
2018-03-22T12:46:29.027Z,4.90
2018-03-22T12:51:39.976Z,7.33
2018-03-22T12:54:08.622Z,7.10
2018-03-22T12:56:37.007Z,7.77
2018-03-22T12:59:05.346Z,6.97
2018-03-22T13:01:33.698Z,7.80
2018-03-22T13:04:02.040Z,7.97
2018-03-22T13:06:30.372Z,7.47
2018-03-22T13:08:58.709Z,8.60
2018-03-22T13:11:27.099Z,6.53
2018-03-22T13:13:55.658Z,8.17
2018-03-22T13:16:24.010Z,8.30
2018-03-22T13:18:52.346Z,7.20
2018-03-22T13:21:20.671Z,6.80
2018-03-22T13:23:49.048Z,6.43
2018-03-22T13:26:17.380Z,6.83
2018-03-22T13:28:45.705Z,7.90
2018-03-22T13:31:14.023Z,7.23
2018-03-22T13:33:42.398Z,8.00
2018-03-22T13:36:10.759Z,8.47
2018-03-22T13:38:39.114Z,8.50
2018-03-22T13:41:07.492Z,8.03
2018-03-22T13:43:35.852Z,8.20
2018-03-22T13:46:04.337Z,8.70
2018-03-22T13:48:32.671Z,9.50
2018-03-22T13:51:00.986Z,9.00
2018-03-22T13:53:29.435Z,9.53
2018-03-22T13:55:57.776Z,9.80
2018-03-22T13:58:26.105Z,9.37
2018-03-22T14:00:54.466Z,10.23
2018-03-22T14:03:22.798Z,10.60
2018-03-22T14:05:51.120Z,9.60
2018-03-22T14:08:19.485Z,10.33
2018-03-22T14:10:47.835Z,10.50
2018-03-22T14:13:16.164Z,9.90
2018-03-22T14:15:44.606Z,10.57
2018-03-22T14:18:13.034Z,9.57
2018-03-22T14:20:41.374Z,7.63
2018-03-22T14:23:09.708Z,8.67
2018-03-22T14:25:38.210Z,8.40
2018-03-22T14:28:06.614Z,8.00
2018-03-22T14:30:41.988Z,9.43
2018-03-22T14:33:10.343Z,8.10
2018-03-22T14:35:38.675Z,7.47
2018-03-22T14:38:07.098Z,7.90
2018-03-22T14:40:35.564Z,8.80
2018-03-22T14:43:04.040Z,7.87
2018-03-22T14:45:32.396Z,8.60
2018-03-22T14:48:00.728Z,8.33
2018-03-22T14:50:29.172Z,6.93
2018-03-22T14:52:57.504Z,6.60
2018-03-22T14:55:25.893Z,6.57
2018-03-22T14:57:54.220Z,7.43
2018-03-22T15:00:22.618Z,7.40
2018-03-22T15:02:50.955Z,6.20
2018-03-22T15:05:19.311Z,7.03
2018-03-22T15:07:47.631Z,7.23
2018-03-22T15:10:15.990Z,7.77
2018-03-22T15:12:44.350Z,7.03
2018-03-22T15:15:12.691Z,7.37
2018-03-22T15:17:41.025Z,7.30
2018-03-22T15:20:09.357Z,6.30
2018-03-22T15:22:37.733Z,6.77
2018-03-22T15:25:06.080Z,5.50
2018-03-22T15:27:34.577Z,7.23
2018-03-22T15:30:02.907Z,6.83
2018-03-22T15:32:31.247Z,6.50
2018-03-22T15:34:59.594Z,6.73
2018-03-22T15:37:27.971Z,6.80
2018-03-22T15:39:56.477Z,7.53
2018-03-22T15:42:25.015Z,6.83
2018-03-22T15:44:53.683Z,7.77
2018-03-22T15:47:22.002Z,6.40
2018-03-22T15:49:50.318Z,9.17
2018-03-22T15:52:18.643Z,6.43
2018-03-22T15:54:47.048Z,7.63
2018-03-22T15:57:15.439Z,7.60
2018-03-22T15:59:43.839Z,6.83
2018-03-22T16:02:12.325Z,5.40
2018-03-22T16:04:40.656Z,5.33
2018-03-22T16:07:08.980Z,7.07
2018-03-22T16:09:37.323Z,5.27
2018-03-22T16:12:05.669Z,5.50
2018-03-22T16:14:34.006Z,5.43
2018-03-22T16:17:02.337Z,3.97
2018-03-22T16:19:30.708Z,3.87
2018-03-22T16:21:59.221Z,4.70
2018-03-22T16:24:27.562Z,4.27
2018-03-22T16:26:55.920Z,4.23
2018-03-22T16:29:24.287Z,4.07
2018-03-22T16:31:52.626Z,3.50
2018-03-22T16:34:20.949Z,4.33
2018-03-22T16:36:49.307Z,5.47
2018-03-22T16:39:17.853Z,3.30
2018-03-22T16:41:46.244Z,2.40
2018-03-22T16:44:14.565Z,2.73
2018-03-22T16:46:42.899Z,2.20
2018-03-22T16:49:11.423Z,2.80
2018-03-22T16:51:40.293Z,2.97
2018-03-22T17:26:06.015Z,5.40
2018-03-22T17:28:34.589Z,6.03
2018-03-22T17:31:17.242Z,3.77
2018-03-22T17:33:45.589Z,4.13
2018-03-22T17:39:02.407Z,4.33
2018-03-22T17:41:30.757Z,5.93
